Time;durP1;ratioP1;P1;durP2;ratioP2;P2;SDS_P1;SDS_P2;PMS_P1;PMS_P2;Temp;Humidity;BMP_temperature;BMP_pressure;BME280_temperature;BME280_humidity;BME280_pressure;Samples;Min_cycle;Max_cycle;Signal;HPM_P1;HPM_P2
2021/12/14 00:02:19;;;;;;;;;;;;;;;27.70;59.79;100905.84;5126908;27;69296;-34
2021/12/14 00:04:52;;;;;;;;;;;;;;;27.74;59.76;100907.91;5131577;27;66545;-34
2021/12/14 00:07:22;;;;;;;;;;;;;;;27.65;59.60;100909.13;5126216;27;70278;-34
2021/12/14 00:10:02;;;;;;;;;;;;;;;27.69;60.24;100915.75;5124473;27;66158;-34
2021/12/14 00:12:41;;;;;;;;;;;;;;;27.76;60.79;100926.59;5119423;27;70831;-34
2021/12/14 00:15:15;;;;;;;;;;;;;;;27.61;60.23;100930.25;5123731;27;67353;-35
2021/12/14 00:17:47;;;;;;;;;;;;;;;27.46;59.99;100932.19;5110230;27;70022;-35
2021/12/14 00:20:29;;;;;;;;;;;;;;;27.48;61.01;100935.53;5127528;27;65321;-34
2021/12/14 00:25:35;;;;;;;;;;;;;;;27.68;61.96;100924.91;5106820;27;65387;-34
2021/12/14 00:28:26;;;;;;;;;;;;;;;27.74;62.25;100926.78;5125539;27;70496;-34
2021/12/14 00:30:58;;;;;;;;;;;;;;;27.75;61.01;100927.63;5120026;27;66641;-36
2021/12/14 00:33:35;;;;;;;;;;;;;;;27.79;59.81;100943.25;5123951;27;68893;-34
2021/12/14 00:36:11;;;;;;;;;;;;;;;27.84;59.02;100942.66;5134903;27;65461;-34
2021/12/14 00:38:43;;;;;;;;;;;;;;;27.87;58.91;100941.44;5096438;27;70192;-34
2021/12/14 00:41:19;;;;;;;;;;;;;;;27.91;58.45;100943.50;5103114;27;65450;-34
2021/12/14 00:43:49;;;;;;;;;;;;;;;27.94;58.36;100944.97;5106172;27;70219;-35
2021/12/14 00:46:20;;;;;;;;;;;;;;;27.97;58.38;100944.56;5136183;27;66064;-34
2021/12/14 00:48:59;;;;;;;;;;;;;;;27.99;57.96;100948.75;5136833;27;70479;-35
2021/12/14 00:51:30;;;;;;;;;;;;;;;28.00;57.88;100949.56;5109371;27;66610;-35
2021/12/14 00:54:04;;;;;;;;;;;;;;;28.02;57.83;100942.94;5125853;27;69847;-34
2021/12/14 00:56:34;;;;;;;;;;;;;;;28.04;57.57;100940.88;5127037;27;65520;-35
2021/12/14 00:59:05;;;;;;;;;;;;;;;28.05;57.66;100945.28;5118929;27;70403;-35
2021/12/14 01:01:41;;;;;;;;;;;;;;;28.06;57.71;100941.53;5110717;27;65589;-34
2021/12/14 01:04:21;;;;;;;;;;;;;;;28.09;57.53;100947.56;5116559;27;69186;-34
2021/12/14 01:06:51;;;;;;;;;;;;;;;28.10;57.29;100949.22;5104576;27;66512;-34
2021/12/14 01:09:29;;;;;;;;;;;;;;;28.11;57.41;100950.88;5108164;27;70060;-34
2021/12/14 01:12:06;;;;;;;;;;;;;;;28.12;57.18;100945.28;5119618;27;66296;-34
2021/12/14 01:14:59;;;;;;;;;;;;;;;28.14;57.19;100953.16;5123301;27;69902;-33
2021/12/14 01:17:54;;;;;;;;;;;;;;;28.16;57.21;100959.19;5113929;27;66651;-34
2021/12/14 01:20:40;;;;;;;;;;;;;;;28.16;56.97;100967.28;5102545;27;70589;-35
2021/12/14 01:23:34;;;;;;;;;;;;;;;28.18;57.13;100962.53;5098847;27;65995;-35
2021/12/14 01:26:15;;;;;;;;;;;;;;;28.14;57.00;100958.56;5104830;27;70412;-34
2021/12/14 01:28:49;;;;;;;;;;;;;;;28.20;57.10;100965.88;5116124;27;66993;-33
2021/12/14 01:31:39;;;;;;;;;;;;;;;28.22;56.98;100969.19;5106515;27;70080;-33
2021/12/14 01:34:31;;;;;;;;;;;;;;;28.23;57.04;100977.09;5101746;27;67744;-34
2021/12/14 01:37:26;;;;;;;;;;;;;;;28.24;57.18;100973.34;5118438;27;69149;-34
2021/12/14 01:40:17;;;;;;;;;;;;;;;28.26;56.99;100975.84;5097546;27;66270;-33
2021/12/14 01:42:52;;;;;;;;;;;;;;;28.28;57.11;100968.41;5100987;27;69953;-33
2021/12/14 01:45:30;;;;;;;;;;;;;;;28.29;57.07;100959.28;5103348;27;65845;-33
2021/12/14 01:48:38;;;;;;;;;;;;;;;28.32;56.71;100966.13;5092313;27;70135;-35
2021/12/14 01:52:04;;;;;;;;;;;;;;;28.33;56.88;100975.88;5122434;27;65622;-34
2021/12/14 01:54:45;;;;;;;;;;;;;;;28.35;56.96;100969.25;5110851;27;69954;-35
2021/12/14 01:57:22;;;;;;;;;;;;;;;28.36;56.77;100970.94;5120444;27;65607;-35
2021/12/14 02:00:26;;;;;;;;;;;;;;;28.37;56.64;100964.50;5108891;27;69907;-34
2021/12/14 02:03:12;;;;;;;;;;;;;;;28.40;56.58;100982.16;5128182;27;65792;-34
2021/12/14 02:06:02;;;;;;;;;;;;;;;28.41;56.73;100979.22;5124063;27;70068;-35
2021/12/14 02:09:17;;;;;;;;;;;;;;;28.43;56.76;100988.00;5072511;27;66159;-34
2021/12/14 02:12:00;;;;;;;;;;;;;;;28.44;56.50;100984.25;5062347;27;69874;-34
2021/12/14 02:14:39;;;;;;;;;;;;;;;28.46;56.46;100993.00;5103951;27;66127;-34
2021/12/14 02:17:17;;;;;;;;;;;;;;;28.48;56.69;100995.50;5078412;27;70328;-35
2021/12/14 02:19:57;;;;;;;;;;;;;;;28.50;56.49;100996.97;5118080;27;66935;-34
2021/12/14 02:22:33;;;;;;;;;;;;;;;28.52;56.41;100992.19;5095703;27;71072;-34
2021/12/14 02:25:23;;;;;;;;;;;;;;;28.54;56.80;100993.84;5135675;27;66694;-34
2021/12/14 02:28:02;;;;;;;;;;;;;;;28.57;56.66;100985.34;5101498;27;70512;-34
2021/12/14 02:30:40;;;;;;;;;;;;;;;28.58;56.79;100992.41;5133697;27;66670;-33
2021/12/14 02:33:32;;;;;;;;;;;;;;;28.60;56.73;100993.03;5118058;27;70472;-34
2021/12/14 02:36:21;;;;;;;;;;;;;;;28.63;56.66;100992.63;5097016;27;66299;-34
2021/12/14 02:39:12;;;;;;;;;;;;;;;28.64;56.72;100989.75;5109266;27;70879;-35
2021/12/14 02:41:51;;;;;;;;;;;;;;;28.66;56.27;100997.63;5107085;27;66453;-34
2021/12/14 02:44:35;;;;;;;;;;;;;;;28.67;56.62;101010.09;5104308;27;70337;-35
2021/12/14 02:47:24;;;;;;;;;;;;;;;28.69;56.46;101005.31;5108262;27;66638;-34
2021/12/14 02:49:57;;;;;;;;;;;;;;;28.71;56.36;101003.25;5105450;27;67667;-35
2021/12/14 02:52:36;;;;;;;;;;;;;;;28.74;56.40;101000.16;5103127;27;66370;-34
2021/12/14 02:55:11;;;;;;;;;;;;;;;28.74;56.37;101000.16;5104089;27;70883;-34
2021/12/14 02:57:53;;;;;;;;;;;;;;;28.77;56.25;100997.03;5111206;27;66001;-34
2021/12/14 03:00:29;;;;;;;;;;;;;;;28.80;56.54;100993.09;5085488;27;69390;-34
2021/12/14 03:03:12;;;;;;;;;;;;;;;28.82;56.17;100999.13;5110080;27;66444;-34
2021/12/14 03:05:45;;;;;;;;;;;;;;;28.84;56.53;100984.41;5108951;27;70341;-33
2021/12/14 03:08:26;;;;;;;;;;;;;;;28.85;55.98;100986.06;5108388;27;66754;-34
2021/12/14 03:11:12;;;;;;;;;;;;;;;28.88;56.00;100991.03;5102225;27;70784;-34
2021/12/14 03:13:47;;;;;;;;;;;;;;;28.92;56.31;100988.78;5126544;27;65902;-34
2021/12/14 03:16:25;;;;;;;;;;;;;;;28.93;56.09;100988.56;5076798;27;69750;-34
2021/12/14 03:18:58;;;;;;;;;;;;;;;28.96;56.42;100990.03;5107536;27;66499;-34
2021/12/14 03:21:34;;;;;;;;;;;;;;;28.99;56.33;100991.50;5096711;27;71024;-36
2021/12/14 03:24:14;;;;;;;;;;;;;;;29.00;56.04;100993.16;5109352;27;65426;-35
2021/12/14 03:26:51;;;;;;;;;;;;;;;29.03;56.21;100992.72;5092610;27;69829;-34
2021/12/14 03:29:34;;;;;;;;;;;;;;;29.05;55.86;100986.13;5110574;27;66244;-34
2021/12/14 03:32:05;;;;;;;;;;;;;;;29.08;55.89;100984.88;5109290;27;69248;-33
2021/12/14 03:34:38;;;;;;;;;;;;;;;29.10;55.98;100988.22;5105632;27;66331;-35
2021/12/14 03:37:16;;;;;;;;;;;;;;;29.12;55.79;100986.16;5112724;27;68631;-35
2021/12/14 03:39:54;;;;;;;;;;;;;;;29.13;56.16;100985.09;5111280;27;65691;-35
2021/12/14 03:42:37;;;;;;;;;;;;;;;29.15;56.01;100977.63;5096884;27;69922;-34
2021/12/14 03:45:19;;;;;;;;;;;;;;;29.18;55.76;100971.81;5108786;27;65373;-34
2021/12/14 03:47:55;;;;;;;;;;;;;;;29.21;55.58;100963.28;5106831;27;69988;-35
2021/12/14 03:50:32;;;;;;;;;;;;;;;29.23;56.04;100966.63;5113227;27;66423;-35
2021/12/14 03:53:04;;;;;;;;;;;;;;;29.26;55.99;100965.38;5108893;27;68490;-34
2021/12/14 03:55:39;;;;;;;;;;;;;;;29.27;55.58;100957.06;5122398;27;66674;-35
2021/12/14 03:58:21;;;;;;;;;;;;;;;29.31;55.80;100961.00;5101999;27;70227;-35
2021/12/14 04:00:57;;;;;;;;;;;;;;;29.29;55.79;100944.19;5100242;27;66859;-34
2021/12/14 04:03:38;;;;;;;;;;;;;;;29.35;55.79;100954.16;5134380;27;70607;-34
2021/12/14 04:06:16;;;;;;;;;;;;;;;29.38;55.76;100953.72;5109130;27;65392;-34
2021/12/14 04:08:52;;;;;;;;;;;;;;;29.40;55.89;100946.25;5108464;27;70701;-35
2021/12/14 04:11:40;;;;;;;;;;;;;;;29.43;55.80;100939.59;5092291;27;66656;-34
2021/12/14 04:14:29;;;;;;;;;;;;;;;29.46;55.50;100932.94;5111296;27;69499;-34
2021/12/14 04:17:17;;;;;;;;;;;;;;;29.49;55.22;100937.94;5110186;27;66593;-35
2021/12/14 04:20:12;;;;;;;;;;;;;;;29.51;55.24;100931.28;5110384;27;70121;-35
2021/12/14 04:23:00;;;;;;;;;;;;;;;29.55;55.73;100934.38;5107270;27;66238;-35
2021/12/14 04:25:48;;;;;;;;;;;;;;;29.58;55.28;100925.84;5113348;27;70068;-33
2021/12/14 04:28:42;;;;;;;;;;;;;;;29.61;55.71;100917.31;5113130;27;65333;-35
2021/12/14 04:31:35;;;;;;;;;;;;;;;29.64;55.59;100914.22;5110284;27;70818;-35
2021/12/14 04:34:23;;;;;;;;;;;;;;;29.67;55.38;100902.16;5107312;27;66433;-35
2021/12/14 04:37:11;;;;;;;;;;;;;;;29.70;55.38;100902.59;5112611;27;69416;-33
2021/12/14 04:40:18;;;;;;;;;;;;;;;29.72;54.81;100895.06;5113848;27;66299;-35
2021/12/14 04:52:44;;;;;;;;;;;;;;;29.88;54.60;100876.72;5111062;27;66918;-36
2021/12/14 04:55:32;;;;;;;;;;;;;;;29.92;54.62;100872.53;5110091;27;70733;-34
2021/12/14 04:58:32;;;;;;;;;;;;;;;29.95;54.92;100867.56;5105058;27;66275;-35
2021/12/14 05:01:19;;;;;;;;;;;;;;;29.99;54.42;100862.53;5115292;27;69486;-35
2021/12/14 05:04:07;;;;;;;;;;;;;;;29.71;55.06;100801.50;5105665;27;66901;-35
2021/12/14 05:07:04;;;;;;;;;;;;;;;30.04;54.96;100839.22;5109053;27;69377;-35
2021/12/14 05:09:51;;;;;;;;;;;;;;;30.08;54.35;100836.06;5113057;27;66313;-35
2021/12/14 05:12:41;;;;;;;;;;;;;;;30.10;54.48;100842.09;5113554;27;70145;-36
2021/12/14 05:15:36;;;;;;;;;;;;;;;30.13;54.82;100842.50;5115088;27;66464;-35
2021/12/14 05:18:26;;;;;;;;;;;;;;;30.16;54.95;100836.66;5109257;27;69867;-34
2021/12/14 05:21:13;;;;;;;;;;;;;;;30.19;54.37;100833.50;5108665;27;65572;-33
2021/12/14 05:24:04;;;;;;;;;;;;;;;30.21;54.31;100833.28;5116514;27;68980;-33
2021/12/14 05:27:03;;;;;;;;;;;;;;;30.25;54.26;100823.72;5101437;27;66350;-34
2021/12/14 05:29:54;;;;;;;;;;;;;;;30.27;54.24;100814.34;5128238;27;69169;-36
2021/12/14 05:33:01;;;;;;;;;;;;;;;30.28;54.14;100807.91;5099460;27;66834;-37
2021/12/14 05:35:51;;;;;;;;;;;;;;;30.33;54.70;100792.88;5100335;27;70033;-34
2021/12/14 05:38:56;;;;;;;;;;;;;;;30.35;54.63;100799.72;5107626;27;66305;-34
2021/12/14 05:45:06;;;;;;;;;;;;;;;30.42;54.28;100787.00;5122315;27;66772;-34
2021/12/14 05:47:56;;;;;;;;;;;;;;;30.45;54.43;100777.56;5104665;27;70815;-35
2021/12/14 05:50:45;;;;;;;;;;;;;;;30.48;54.24;100779.88;5104603;27;65815;-34
2021/12/14 05:53:36;;;;;;;;;;;;;;;30.49;53.86;100765.28;5112212;27;70049;-35
2021/12/14 05:56:23;;;;;;;;;;;;;;;30.55;54.26;100758.16;5111636;27;66411;-34
2021/12/14 05:59:10;;;;;;;;;;;;;;;30.57;54.42;100751.47;5127093;27;69417;-35
2021/12/14 06:02:00;;;;;;;;;;;;;;;30.61;54.22;100751.84;5082809;27;65787;-35
2021/12/14 06:04:53;;;;;;;;;;;;;;;30.62;54.33;100738.09;5127577;27;70395;-34
2021/12/14 06:07:41;;;;;;;;;;;;;;;30.65;54.38;100721.41;5102751;27;66606;-36
2021/12/14 06:10:29;;;;;;;;;;;;;;;30.69;53.88;100713.66;5103048;27;69267;-35
2021/12/14 06:13:18;;;;;;;;;;;;;;;30.71;53.92;100709.69;5090734;27;65342;-35
2021/12/14 06:16:06;;;;;;;;;;;;;;;30.73;54.06;100704.88;5105476;27;70096;-35
2021/12/14 06:18:53;;;;;;;;;;;;;;;30.77;53.74;100699.00;5129912;27;66351;-34
2021/12/14 06:21:40;;;;;;;;;;;;;;;30.80;54.29;100695.88;5111849;27;70087;-34
2021/12/14 06:24:29;;;;;;;;;;;;;;;30.82;54.30;100694.59;5098404;27;66793;-34
2021/12/14 06:27:24;;;;;;;;;;;;;;;30.85;54.35;100690.63;5106825;27;70722;-33
2021/12/14 06:30:23;;;;;;;;;;;;;;;30.86;54.36;100678.72;5105215;27;65787;-35
2021/12/14 06:33:11;;;;;;;;;;;;;;;30.75;53.76;100658.59;5124966;27;68975;-34
2021/12/14 06:36:02;;;;;;;;;;;;;;;30.88;53.97;100660.38;5114533;27;66551;-35
2021/12/14 06:38:50;;;;;;;;;;;;;;;30.93;54.38;100668.66;5100716;27;69163;-34
2021/12/14 06:41:37;;;;;;;;;;;;;;;30.93;54.07;100658.66;5104049;27;67432;-34
2021/12/14 06:44:23;;;;;;;;;;;;;;;30.96;54.05;100656.56;5104006;27;69771;-33
2021/12/14 06:47:10;;;;;;;;;;;;;;;30.98;54.06;100662.53;5118116;27;66798;-34
2021/12/14 06:50:07;;;;;;;;;;;;;;;30.97;54.01;100659.00;5127552;27;69512;-34
2021/12/14 06:53:01;;;;;;;;;;;;;;;30.98;54.53;100649.84;5095658;27;66063;-34
2021/12/14 06:56:09;;;;;;;;;;;;;;;30.96;54.13;100651.97;5130095;27;70641;-35
2021/12/14 06:59:20;;;;;;;;;;;;;;;31.01;54.57;100653.97;5110145;27;65646;-35
2021/12/14 07:02:13;;;;;;;;;;;;;;;31.02;53.95;100645.63;5129132;27;70422;-34
2021/12/14 07:05:31;;;;;;;;;;;;;;;31.02;54.58;100642.91;5107742;27;66631;-34
2021/12/14 07:08:26;;;;;;;;;;;;;;;31.02;54.55;100634.78;5083157;27;70463;-34
2021/12/14 07:11:28;;;;;;;;;;;;;;;31.04;54.38;100640.00;5115711;27;66474;-34
2021/12/14 07:14:20;;;;;;;;;;;;;;;31.03;54.54;100636.44;5128824;27;70309;-36
2021/12/14 07:17:11;;;;;;;;;;;;;;;31.04;54.45;100638.09;5135362;27;66693;-35
2021/12/14 07:20:24;;;;;;;;;;;;;;;31.05;54.14;100639.75;5098424;27;62594;-33
2021/12/14 07:23:18;;;;;;;;;;;;;;;31.06;54.80;100638.69;5116393;27;66380;-34
2021/12/14 07:26:06;;;;;;;;;;;;;;;31.01;54.33;100633.16;5101224;27;69964;-35
2021/12/14 07:28:58;;;;;;;;;;;;;;;31.07;54.78;100643.06;5106846;27;66177;-34
2021/12/14 07:31:47;;;;;;;;;;;;;;;31.09;54.88;100640.97;5097574;27;69753;-35
2021/12/14 07:34:37;;;;;;;;;;;;;;;31.10;54.34;100636.38;5100501;27;66177;-33
2021/12/14 07:37:35;;;;;;;;;;;;;;;31.10;54.89;100637.19;5094311;27;68978;-33
2021/12/14 07:40:23;;;;;;;;;;;;;;;31.11;54.39;100638.84;5094438;27;67004;-34
2021/12/14 07:43:38;;;;;;;;;;;;;;;31.11;54.94;100636.13;5127434;27;70014;-34
2021/12/14 07:46:30;;;;;;;;;;;;;;;31.13;54.69;100636.72;5101540;27;65469;-34
2021/12/14 07:49:41;;;;;;;;;;;;;;;31.14;54.96;100632.97;5131346;27;70881;-33
2021/12/14 07:52:35;;;;;;;;;;;;;;;31.15;54.48;100631.91;5122357;27;65960;-33
2021/12/14 07:55:28;;;;;;;;;;;;;;;31.15;54.42;100634.63;5121297;27;69503;-35
2021/12/14 07:58:29;;;;;;;;;;;;;;;31.17;54.64;100631.66;5120942;27;66220;-34
2021/12/14 08:01:21;;;;;;;;;;;;;;;31.20;54.47;100630.38;5124766;27;69741;-33
2021/12/14 08:04:10;;;;;;;;;;;;;;;31.19;54.34;100629.56;5101982;27;66558;-36
2021/12/14 08:06:56;;;;;;;;;;;;;;;31.21;54.67;100630.19;5100306;27;70314;-35
2021/12/14 08:09:52;;;;;;;;;;;;;;;31.22;54.74;100623.69;5091369;27;66742;-34
2021/12/14 08:12:45;;;;;;;;;;;;;;;31.23;54.51;100629.94;5121915;27;69197;-34
2021/12/14 08:15:33;;;;;;;;;;;;;;;31.24;54.81;100627.00;5113248;27;66378;-34
2021/12/14 08:18:27;;;;;;;;;;;;;;;31.26;54.28;100624.06;5116211;27;69733;-33
2021/12/14 08:21:19;;;;;;;;;;;;;;;31.26;54.46;100630.31;5110030;27;65978;-34
2021/12/14 08:24:10;;;;;;;;;;;;;;;31.27;54.83;100625.72;5120643;27;69396;-35
2021/12/14 08:26:59;;;;;;;;;;;;;;;31.27;54.71;100631.16;5120724;27;65395;-35
2021/12/14 08:29:48;;;;;;;;;;;;;;;31.28;55.11;100632.78;5126998;27;70160;-35
2021/12/14 08:32:37;;;;;;;;;;;;;;;31.28;55.14;100638.22;5135443;27;65523;-34
2021/12/14 08:35:25;;;;;;;;;;;;;;;31.28;54.73;100632.78;5126264;27;69990;-35
2021/12/14 08:38:13;;;;;;;;;;;;;;;31.28;54.52;100632.78;5118620;27;66350;-34
2021/12/14 08:40:47;;;;;;;;;;;;;;;31.25;54.84;100622.41;5119313;27;70354;-35
2021/12/14 08:43:25;;;;;;;;;;;;;;;31.29;54.89;100634.47;5117592;27;66155;-33
2021/12/14 08:45:58;;;;;;;;;;;;;;;31.26;55.15;100626.75;5121377;27;69779;-35
2021/12/14 08:48:31;;;;;;;;;;;;;;;31.31;54.85;100637.75;5123239;27;66624;-33
2021/12/14 08:51:15;;;;;;;;;;;;;;;31.32;54.73;100634.00;5126218;27;69082;-34
2021/12/14 08:53:51;;;;;;;;;;;;;;;31.33;54.73;100630.22;5127681;27;65855;-34
2021/12/14 08:56:24;;;;;;;;;;;;;;;31.03;55.14;100593.09;5125798;27;69600;-34
2021/12/14 08:58:54;;;;;;;;;;;;;;;31.33;54.88;100636.47;5108506;27;66394;-34
2021/12/14 09:01:27;;;;;;;;;;;;;;;31.34;55.02;100637.28;5106795;27;70240;-35
2021/12/14 09:04:03;;;;;;;;;;;;;;;31.33;54.78;100647.31;5115223;27;67035;-34
2021/12/14 09:06:36;;;;;;;;;;;;;;;31.33;55.44;100641.88;5123668;27;69763;-34
2021/12/14 09:09:12;;;;;;;;;;;;;;;31.35;55.17;100649.81;5128391;27;66174;-34
2021/12/14 09:11:48;;;;;;;;;;;;;;;31.35;55.59;100644.38;5121154;27;70283;-34
2021/12/14 09:14:18;;;;;;;;;;;;;;;31.34;55.15;100646.28;5125999;27;66570;-35
2021/12/14 09:16:54;;;;;;;;;;;;;;;31.35;55.29;100660.63;5118880;27;69812;-36
2021/12/14 09:19:38;;;;;;;;;;;;;;;31.36;55.08;100656.91;5119319;27;66312;-35
2021/12/14 09:22:12;;;;;;;;;;;;;;;31.35;55.50;100666.06;5119186;27;70161;-34
2021/12/14 09:24:42;;;;;;;;;;;;;;;31.36;55.51;100662.31;5119272;27;66828;-34
2021/12/14 09:27:15;;;;;;;;;;;;;;;31.35;55.75;100666.88;5119206;27;70363;-34
2021/12/14 09:29:47;;;;;;;;;;;;;;;31.36;55.33;100670.44;5118626;27;66610;-36
2021/12/14 09:32:25;;;;;;;;;;;;;;;31.36;55.52;100678.56;5125860;27;70796;-34
2021/12/14 09:34:57;;;;;;;;;;;;;;;31.37;55.26;100674.81;5119150;27;66603;-34
2021/12/14 09:37:28;;;;;;;;;;;;;;;31.37;55.96;100685.66;5099261;27;69888;-34
2021/12/14 09:40:00;;;;;;;;;;;;;;;31.38;55.47;100681.91;5125791;27;66778;-34
2021/12/14 09:42:32;;;;;;;;;;;;;;;31.37;55.89;100691.91;5101010;27;70317;-37
2021/12/14 09:45:06;;;;;;;;;;;;;;;31.38;55.31;100696.28;5090578;27;65754;-34
2021/12/14 09:47:36;;;;;;;;;;;;;;;31.37;55.99;100700.03;5116547;27;70274;-34
2021/12/14 09:50:09;;;;;;;;;;;;;;;31.37;55.67;100707.31;5132077;27;66920;-35
2021/12/14 09:52:43;;;;;;;;;;;;;;;31.36;55.76;100706.50;5130211;27;72203;-35
2021/12/14 09:55:17;;;;;;;;;;;;;;;31.37;55.46;100707.31;5118944;27;66573;-35
2021/12/14 09:57:52;;;;;;;;;;;;;;;31.37;55.53;100704.63;5106666;27;69908;-33
2021/12/14 10:00:29;;;;;;;;;;;;;;;31.36;55.73;100716.53;5126417;27;66485;-35
2021/12/14 10:03:01;;;;;;;;;;;;;;;31.36;55.87;100713.81;5127122;27;70318;-36
2021/12/14 10:05:37;;;;;;;;;;;;;;;31.36;56.08;100716.53;5120767;27;65399;-36
2021/12/14 10:08:15;;;;;;;;;;;;;;;31.36;55.64;100717.34;5127193;27;70494;-34
2021/12/14 10:11:08;;;;;;;;;;;;;;;31.34;55.64;100721.31;5133245;27;66253;-35
2021/12/14 10:13:41;;;;;;;;;;;;;;;31.36;55.80;100727.38;5125897;27;70337;-33
2021/12/14 10:16:11;;;;;;;;;;;;;;;31.36;55.75;100727.38;5129800;27;66770;-34
2021/12/14 10:18:43;;;;;;;;;;;;;;;31.35;56.01;100725.69;5101784;27;70172;-35
2021/12/14 10:21:18;;;;;;;;;;;;;;;31.35;55.71;100739.25;5101071;27;65872;-34
2021/12/14 10:23:50;;;;;;;;;;;;;;;31.32;56.09;100734.28;5125768;27;70431;-33
2021/12/14 10:26:22;;;;;;;;;;;;;;;31.34;56.35;100753.81;5109805;27;66234;-35
2021/12/14 10:28:55;;;;;;;;;;;;;;;31.32;56.25;100758.66;5132637;27;69900;-35
2021/12/14 10:31:36;;;;;;;;;;;;;;;31.36;57.42;100762.59;5128070;27;64967;-35
2021/12/14 10:34:09;;;;;;;;;;;;;;;31.16;59.78;100766.34;5120502;27;69911;-35
2021/12/14 10:36:44;;;;;;;;;;;;;;;31.03;60.78;100765.63;5120758;27;66402;-35
2021/12/14 10:39:25;;;;;;;;;;;;;;;30.93;61.71;100779.72;5125413;27;69951;-35
2021/12/14 10:44:48;;;;;;;;;;;;;;;30.76;62.51;100789.41;5127477;27;70234;-34
2021/12/14 10:47:21;;;;;;;;;;;;;;;30.75;62.72;100798.59;5123297;27;65795;-35
2021/12/14 10:49:53;;;;;;;;;;;;;;;30.71;63.45;100799.03;5117131;27;70180;-34
2021/12/14 10:52:27;;;;;;;;;;;;;;;30.72;64.36;100807.97;5123121;27;66289;-35
2021/12/14 10:55:03;;;;;;;;;;;;;;;30.73;63.87;100798.81;5098331;27;69488;-35
2021/12/14 10:57:34;;;;;;;;;;;;;;;30.69;64.28;100798.41;5127500;27;66710;-36
2021/12/14 11:00:08;;;;;;;;;;;;;;;30.67;63.84;100795.13;5124747;27;70757;-35
2021/12/14 11:02:42;;;;;;;;;;;;;;;30.68;64.67;100796.78;5113473;27;67143;-34
2021/12/14 11:05:18;;;;;;;;;;;;;;;30.67;64.42;100794.28;5110186;27;69954;-34
2021/12/14 11:07:49;;;;;;;;;;;;;;;30.67;64.48;100784.28;5106966;27;66550;-34
2021/12/14 11:10:27;;;;;;;;;;;;;;;30.66;64.88;100792.63;5124027;27;70138;-35
2021/12/14 11:12:59;;;;;;;;;;;;;;;30.64;65.10;100795.53;5094791;27;66227;-35
2021/12/14 11:15:35;;;;;;;;;;;;;;;30.63;65.36;100796.59;5123534;27;70846;-35
2021/12/14 11:18:15;;;;;;;;;;;;;;;30.62;64.95;100800.38;5122604;27;66118;-34
2021/12/14 11:21:08;;;;;;;;;;;;;;;30.58;65.33;100804.53;5121518;27;69906;-34
2021/12/14 11:23:41;;;;;;;;;;;;;;;30.60;65.27;100818.69;5124842;27;65406;-35
2021/12/14 11:26:16;;;;;;;;;;;;;;;30.50;65.29;100800.22;5118169;27;70927;-35
2021/12/14 11:28:56;;;;;;;;;;;;;;;30.60;65.03;100816.00;5123348;27;66080;-34
2021/12/14 11:31:33;;;;;;;;;;;;;;;30.55;65.88;100812.28;5120910;27;70006;-35
2021/12/14 11:34:05;;;;;;;;;;;;;;;30.56;65.41;100820.16;5129798;27;66828;-35
2021/12/14 11:36:37;;;;;;;;;;;;;;;30.56;66.03;100820.16;5126091;27;69130;-35
2021/12/14 11:39:27;;;;;;;;;;;;;;;30.53;66.16;100823.31;5127106;27;66838;-35
2021/12/14 11:41:59;;;;;;;;;;;;;;;30.53;66.23;100825.19;5127295;27;69276;-34
2021/12/14 11:44:36;;;;;;;;;;;;;;;30.54;66.46;100827.72;5127034;27;65573;-35
2021/12/14 11:50:01;;;;;;;;;;;;;;;30.53;66.90;100822.50;5126476;27;66241;-34
2021/12/14 11:52:54;;;;;;;;;;;;;;;30.53;66.54;100828.72;5125239;27;69978;-35
2021/12/14 11:55:32;;;;;;;;;;;;;;;30.50;66.92;100834.59;5125433;27;66437;-35
2021/12/14 11:58:05;;;;;;;;;;;;;;;30.51;66.57;100841.69;5129491;27;69637;-37
2021/12/14 12:00:38;;;;;;;;;;;;;;;30.50;67.02;100848.13;5131748;27;65492;-34
2021/12/14 12:03:20;;;;;;;;;;;;;;;30.51;66.89;100849.81;5112379;27;70132;-35
2021/12/14 12:06:13;;;;;;;;;;;;;;;30.53;66.57;100857.69;5129533;27;65468;-34
2021/12/14 12:11:42;;;;;;;;;;;;;;;30.50;66.20;100865.19;5101818;27;65716;-34
2021/12/14 12:14:41;;;;;;;;;;;;;;;30.50;66.47;100862.47;5119568;27;70782;-35
2021/12/14 12:17:33;;;;;;;;;;;;;;;30.47;66.30;100862.09;5107893;27;65357;-35
2021/12/14 12:20:14;;;;;;;;;;;;;;;30.49;66.56;100873.53;5113079;27;69459;-34
2021/12/14 12:22:50;;;;;;;;;;;;;;;30.46;66.52;100868.56;5113395;27;66313;-35
2021/12/14 12:25:20;;;;;;;;;;;;;;;30.47;66.21;100876.47;5111353;27;69351;-35
2021/12/14 12:27:54;;;;;;;;;;;;;;;30.47;66.08;100876.47;5095841;27;66712;-35
2021/12/14 12:30:48;;;;;;;;;;;;;;;30.45;66.43;100878.56;5109622;27;70187;-37
2021/12/14 12:33:43;;;;;;;;;;;;;;;30.35;67.36;100882.78;5106938;27;65580;-35
2021/12/14 12:36:24;;;;;;;;;;;;;;;30.29;67.98;100884.50;5123288;27;69231;-35
2021/12/14 12:39:00;;;;;;;;;;;;;;;30.17;68.25;100878.91;5113354;27;66020;-36
2021/12/14 12:41:48;;;;;;;;;;;;;;;30.09;68.87;100879.16;5107144;27;70085;-36
2021/12/14 12:44:25;;;;;;;;;;;;;;;30.09;69.12;100892.69;5101830;27;66451;-35
2021/12/14 12:47:08;;;;;;;;;;;;;;;30.04;70.27;100897.91;5126398;27;70246;-35
2021/12/14 12:50:09;;;;;;;;;;;;;;;30.01;70.10;100899.16;5130540;27;65742;-36
2021/12/14 12:52:55;;;;;;;;;;;;;;;29.99;70.36;100897.69;5128332;27;70331;-36
2021/12/14 12:55:34;;;;;;;;;;;;;;;29.95;70.43;100900.00;5120745;27;65903;-34
2021/12/14 12:58:14;;;;;;;;;;;;;;;29.92;70.56;100897.75;5099449;27;69609;-35
2021/12/14 13:01:04;;;;;;;;;;;;;;;29.86;70.51;100900.44;5106092;27;65379;-35
2021/12/14 13:03:42;;;;;;;;;;;;;;;29.82;70.10;100898.16;5115509;27;68808;-35
2021/12/14 13:06:27;;;;;;;;;;;;;;;29.77;70.88;100903.38;5107106;27;65333;-34
2021/12/14 13:09:05;;;;;;;;;;;;;;;29.77;70.52;100907.97;5097996;27;69316;-35
2021/12/14 13:11:48;;;;;;;;;;;;;;;29.70;71.06;100902.59;5128263;27;67260;-34
2021/12/14 13:14:40;;;;;;;;;;;;;;;29.67;70.88;100908.41;5109776;27;69880;-36
2021/12/14 13:17:19;;;;;;;;;;;;;;;29.62;71.11;100906.31;5098089;27;66280;-35
2021/12/14 13:20:11;;;;;;;;;;;;;;;29.61;70.87;100920.00;5120703;27;70006;-34
2021/12/14 13:22:52;;;;;;;;;;;;;;;29.58;70.97;100920.44;5117747;27;66782;-35
2021/12/14 13:25:36;;;;;;;;;;;;;;;29.57;71.25;100924.19;5087165;27;70417;-35
2021/12/14 13:28:13;;;;;;;;;;;;;;;29.55;71.80;100926.28;5107809;27;66789;-34
2021/12/14 13:30:54;;;;;;;;;;;;;;;29.56;72.05;100933.31;5128036;27;69072;-34
2021/12/14 13:33:29;;;;;;;;;;;;;;;29.54;71.99;100935.44;5121265;27;66175;-36
2021/12/14 13:36:03;;;;;;;;;;;;;;;29.53;72.58;100931.03;5093209;27;70675;-35
2021/12/14 13:38:58;;;;;;;;;;;;;;;29.51;72.77;100933.97;5116663;27;66638;-37
2021/12/14 13:41:44;;;;;;;;;;;;;;;29.50;72.09;100936.88;5096191;27;70078;-38
2021/12/14 13:44:27;;;;;;;;;;;;;;;29.45;73.62;100931.25;5111081;27;66248;-39
2021/12/14 13:47:02;;;;;;;;;;;;;;;29.47;73.23;100950.81;5109376;27;70289;-36
2021/12/14 13:49:46;;;;;;;;;;;;;;;29.23;70.29;100945.00;5111169;27;65812;-36
2021/12/14 13:52:24;;;;;;;;;;;;;;;29.02;68.47;100973.00;5084833;27;69070;-37
2021/12/14 13:55:17;;;;;;;;;;;;;;;28.94;68.03;100949.72;5109267;27;65402;-37
2021/12/14 13:57:58;;;;;;;;;;;;;;;28.85;68.08;100948.25;5102212;27;70094;-37
2021/12/14 14:00:38;;;;;;;;;;;;;;;28.75;67.74;100958.59;5092750;27;66462;-36
2021/12/14 14:03:17;;;;;;;;;;;;;;;28.66;67.35;100960.66;5091576;27;70366;-36
2021/12/14 14:06:07;;;;;;;;;;;;;;;28.57;67.13;100955.66;5097360;27;66985;-36
2021/12/14 14:08:54;;;;;;;;;;;;;;;28.52;66.64;100953.56;5120369;27;69980;-38
2021/12/14 14:11:32;;;;;;;;;;;;;;;28.44;66.18;100957.28;5126705;27;65748;-37
2021/12/14 14:14:18;;;;;;;;;;;;;;;28.33;65.34;100963.22;5101304;27;70922;-36
2021/12/14 14:17:00;;;;;;;;;;;;;;;28.24;64.84;100961.72;5126150;27;65589;-37
2021/12/14 14:19:52;;;;;;;;;;;;;;;28.16;65.02;100960.03;5120984;27;71070;-36
2021/12/14 14:22:54;;;;;;;;;;;;;;;28.07;64.57;100962.06;5103632;27;65893;-35